sensor_id;sensor_type;location;lat;lon;timestamp;P1;durP1;ratioP1;P2;durP2;ratioP2
27744;SDS011;61387;48.112;8.616;2023-04-24T00:01:43;1.70;;;0.40;;
27744;SDS011;61387;48.112;8.616;2023-04-24T00:04:09;0.60;;;0.30;;
27744;SDS011;61387;48.112;8.616;2023-04-24T00:06:36;1.77;;;0.50;;
27744;SDS011;61387;48.112;8.616;2023-04-24T00:09:02;1.43;;;0.50;;
27744;SDS011;61387;48.112;8.616;2023-04-24T00:11:28;2.07;;;0.40;;
27744;SDS011;61387;48.112;8.616;2023-04-24T00:13:55;1.67;;;0.57;;
27744;SDS011;61387;48.112;8.616;2023-04-24T00:16:21;0.87;;;0.50;;
27744;SDS011;61387;48.112;8.616;2023-04-24T00:18:47;1.13;;;0.50;;
27744;SDS011;61387;48.112;8.616;2023-04-24T00:21:13;0.82;;;0.20;;
27744;SDS011;61387;48.112;8.616;2023-04-24T00:23:41;3.47;;;0.63;;
27744;SDS011;61387;48.112;8.616;2023-04-24T00:26:06;0.70;;;0.40;;
27744;SDS011;61387;48.112;8.616;2023-04-24T00:28:32;0.80;;;0.30;;
27744;SDS011;61387;48.112;8.616;2023-04-24T00:30:58;1.33;;;0.40;;
27744;SDS011;61387;48.112;8.616;2023-04-24T00:33:24;0.37;;;0.30;;
27744;SDS011;61387;48.112;8.616;2023-04-24T00:35:50;1.17;;;0.50;;
27744;SDS011;61387;48.112;8.616;2023-04-24T00:38:16;1.40;;;0.40;;
27744;SDS011;61387;48.112;8.616;2023-04-24T00:40:42;2.00;;;0.40;;
27744;SDS011;61387;48.112;8.616;2023-04-24T00:43:08;1.20;;;0.37;;
27744;SDS011;61387;48.112;8.616;2023-04-24T00:45:34;3.23;;;0.60;;
27744;SDS011;61387;48.112;8.616;2023-04-24T00:48:01;1.53;;;0.40;;
27744;SDS011;61387;48.112;8.616;2023-04-24T00:50:27;1.17;;;0.57;;
27744;SDS011;61387;48.112;8.616;2023-04-24T00:52:53;1.50;;;0.63;;
27744;SDS011;61387;48.112;8.616;2023-04-24T00:55:20;2.13;;;0.40;;
27744;SDS011;61387;48.112;8.616;2023-04-24T00:57:45;0.60;;;0.47;;
27744;SDS011;61387;48.112;8.616;2023-04-24T01:00:12;1.60;;;0.67;;
27744;SDS011;61387;48.112;8.616;2023-04-24T01:02:40;2.37;;;0.70;;
27744;SDS011;61387;48.112;8.616;2023-04-24T01:05:10;1.30;;;0.70;;
27744;SDS011;61387;48.112;8.616;2023-04-24T01:07:36;1.07;;;0.60;;
27744;SDS011;61387;48.112;8.616;2023-04-24T01:10:02;1.00;;;0.40;;
27744;SDS011;61387;48.112;8.616;2023-04-24T01:12:28;4.70;;;0.70;;
27744;SDS011;61387;48.112;8.616;2023-04-24T01:14:54;1.10;;;0.50;;
27744;SDS011;61387;48.112;8.616;2023-04-24T01:17:21;1.30;;;0.70;;
27744;SDS011;61387;48.112;8.616;2023-04-24T01:19:47;2.00;;;0.60;;
27744;SDS011;61387;48.112;8.616;2023-04-24T01:22:14;0.70;;;0.47;;
27744;SDS011;61387;48.112;8.616;2023-04-24T01:24:41;2.53;;;0.80;;
27744;SDS011;61387;48.112;8.616;2023-04-24T01:27:08;1.50;;;0.70;;
27744;SDS011;61387;48.112;8.616;2023-04-24T01:29:35;2.97;;;0.80;;
27744;SDS011;61387;48.112;8.616;2023-04-24T01:32:01;3.30;;;0.87;;
27744;SDS011;61387;48.112;8.616;2023-04-24T01:34:27;2.07;;;0.70;;
27744;SDS011;61387;48.112;8.616;2023-04-24T01:36:54;2.27;;;0.83;;
27744;SDS011;61387;48.112;8.616;2023-04-24T01:39:21;2.37;;;0.93;;
27744;SDS011;61387;48.112;8.616;2023-04-24T01:41:48;1.00;;;0.70;;
27744;SDS011;61387;48.112;8.616;2023-04-24T01:44:15;2.43;;;1.00;;
27744;SDS011;61387;48.112;8.616;2023-04-24T01:46:41;2.37;;;0.87;;
27744;SDS011;61387;48.112;8.616;2023-04-24T01:49:07;1.67;;;0.87;;
27744;SDS011;61387;48.112;8.616;2023-04-24T01:51:33;1.55;;;1.05;;
27744;SDS011;61387;48.112;8.616;2023-04-24T01:53:59;1.33;;;0.80;;
27744;SDS011;61387;48.112;8.616;2023-04-24T01:56:25;3.47;;;1.07;;
27744;SDS011;61387;48.112;8.616;2023-04-24T01:58:51;2.03;;;0.87;;
27744;SDS011;61387;48.112;8.616;2023-04-24T02:01:22;1.50;;;1.00;;
27744;SDS011;61387;48.112;8.616;2023-04-24T02:03:49;1.40;;;0.73;;
27744;SDS011;61387;48.112;8.616;2023-04-24T02:06:14;2.00;;;0.87;;
27744;SDS011;61387;48.112;8.616;2023-04-24T02:08:40;4.97;;;1.00;;
27744;SDS011;61387;48.112;8.616;2023-04-24T02:11:06;2.37;;;1.00;;
27744;SDS011;61387;48.112;8.616;2023-04-24T02:13:33;1.67;;;0.80;;
27744;SDS011;61387;48.112;8.616;2023-04-24T02:15:58;3.43;;;0.90;;
27744;SDS011;61387;48.112;8.616;2023-04-24T02:18:24;1.23;;;0.80;;
27744;SDS011;61387;48.112;8.616;2023-04-24T02:20:50;2.47;;;1.13;;
27744;SDS011;61387;48.112;8.616;2023-04-24T02:23:16;1.23;;;0.80;;
27744;SDS011;61387;48.112;8.616;2023-04-24T02:25:42;1.30;;;0.80;;
27744;SDS011;61387;48.112;8.616;2023-04-24T02:28:08;2.37;;;0.90;;
27744;SDS011;61387;48.112;8.616;2023-04-24T02:30:34;2.30;;;1.17;;
27744;SDS011;61387;48.112;8.616;2023-04-24T02:33:00;2.17;;;1.17;;
27744;SDS011;61387;48.112;8.616;2023-04-24T02:35:26;1.80;;;1.40;;
27744;SDS011;61387;48.112;8.616;2023-04-24T02:37:51;4.23;;;1.70;;
27744;SDS011;61387;48.112;8.616;2023-04-24T02:40:17;3.30;;;1.40;;
27744;SDS011;61387;48.112;8.616;2023-04-24T02:42:43;2.67;;;1.17;;
27744;SDS011;61387;48.112;8.616;2023-04-24T02:45:09;1.97;;;1.30;;
27744;SDS011;61387;48.112;8.616;2023-04-24T02:47:35;2.17;;;1.33;;
27744;SDS011;61387;48.112;8.616;2023-04-24T02:50:01;3.83;;;1.63;;
27744;SDS011;61387;48.112;8.616;2023-04-24T02:52:28;1.17;;;1.00;;
27744;SDS011;61387;48.112;8.616;2023-04-24T02:54:53;1.80;;;1.20;;
27744;SDS011;61387;48.112;8.616;2023-04-24T02:57:19;2.25;;;1.20;;
27744;SDS011;61387;48.112;8.616;2023-04-24T02:59:45;5.03;;;1.40;;
27744;SDS011;61387;48.112;8.616;2023-04-24T03:02:11;3.00;;;1.27;;
27744;SDS011;61387;48.112;8.616;2023-04-24T03:04:37;1.30;;;1.20;;
27744;SDS011;61387;48.112;8.616;2023-04-24T03:07:04;2.03;;;1.50;;
27744;SDS011;61387;48.112;8.616;2023-04-24T03:09:31;5.93;;;2.00;;
27744;SDS011;61387;48.112;8.616;2023-04-24T03:11:57;2.70;;;1.47;;
27744;SDS011;61387;48.112;8.616;2023-04-24T03:14:23;3.50;;;1.57;;
27744;SDS011;61387;48.112;8.616;2023-04-24T03:16:49;2.03;;;1.20;;
27744;SDS011;61387;48.112;8.616;2023-04-24T03:19:15;3.70;;;1.53;;
27744;SDS011;61387;48.112;8.616;2023-04-24T03:21:41;2.45;;;1.42;;
27744;SDS011;61387;48.112;8.616;2023-04-24T03:24:10;3.37;;;1.20;;
27744;SDS011;61387;48.112;8.616;2023-04-24T03:26:35;1.80;;;0.87;;
27744;SDS011;61387;48.112;8.616;2023-04-24T03:29:01;2.43;;;1.20;;
27744;SDS011;61387;48.112;8.616;2023-04-24T03:31:26;3.07;;;1.00;;
27744;SDS011;61387;48.112;8.616;2023-04-24T03:33:52;1.97;;;1.03;;
27744;SDS011;61387;48.112;8.616;2023-04-24T03:36:18;2.53;;;0.90;;
27744;SDS011;61387;48.112;8.616;2023-04-24T03:38:44;1.33;;;0.73;;
27744;SDS011;61387;48.112;8.616;2023-04-24T03:41:10;1.17;;;0.53;;
27744;SDS011;61387;48.112;8.616;2023-04-24T03:43:36;1.73;;;0.80;;
27744;SDS011;61387;48.112;8.616;2023-04-24T03:46:02;5.23;;;1.10;;
27744;SDS011;61387;48.112;8.616;2023-04-24T03:48:28;2.33;;;0.70;;
27744;SDS011;61387;48.112;8.616;2023-04-24T03:50:54;1.43;;;0.60;;
27744;SDS011;61387;48.112;8.616;2023-04-24T03:53:20;1.83;;;0.60;;
27744;SDS011;61387;48.112;8.616;2023-04-24T03:55:46;1.47;;;0.70;;
27744;SDS011;61387;48.112;8.616;2023-04-24T03:58:12;3.27;;;0.93;;
27744;SDS011;61387;48.112;8.616;2023-04-24T04:00:42;1.97;;;1.30;;
27744;SDS011;61387;48.112;8.616;2023-04-24T04:03:09;5.03;;;3.77;;
27744;SDS011;61387;48.112;8.616;2023-04-24T04:05:35;5.47;;;4.53;;
27744;SDS011;61387;48.112;8.616;2023-04-24T04:08:00;9.13;;;6.40;;
27744;SDS011;61387;48.112;8.616;2023-04-24T04:10:26;9.93;;;7.47;;
27744;SDS011;61387;48.112;8.616;2023-04-24T04:12:52;7.77;;;6.40;;
27744;SDS011;61387;48.112;8.616;2023-04-24T04:15:17;9.50;;;8.10;;
27744;SDS011;61387;48.112;8.616;2023-04-24T04:17:43;10.57;;;8.60;;
27744;SDS011;61387;48.112;8.616;2023-04-24T04:20:10;5.97;;;4.83;;
27744;SDS011;61387;48.112;8.616;2023-04-24T04:22:37;11.07;;;9.00;;
27744;SDS011;61387;48.112;8.616;2023-04-24T04:25:02;5.10;;;4.13;;
27744;SDS011;61387;48.112;8.616;2023-04-24T04:27:29;3.20;;;2.60;;
27744;SDS011;61387;48.112;8.616;2023-04-24T04:29:57;3.90;;;2.00;;
27744;SDS011;61387;48.112;8.616;2023-04-24T04:32:26;3.93;;;2.00;;
27744;SDS011;61387;48.112;8.616;2023-04-24T04:34:52;2.93;;;1.70;;
27744;SDS011;61387;48.112;8.616;2023-04-24T04:37:18;3.13;;;1.70;;
27744;SDS011;61387;48.112;8.616;2023-04-24T04:39:44;3.63;;;1.97;;
27744;SDS011;61387;48.112;8.616;2023-04-24T04:42:09;2.55;;;1.87;;
27744;SDS011;61387;48.112;8.616;2023-04-24T04:44:35;4.03;;;2.07;;
27744;SDS011;61387;48.112;8.616;2023-04-24T04:47:03;2.97;;;1.90;;
27744;SDS011;61387;48.112;8.616;2023-04-24T04:49:30;3.93;;;1.90;;
27744;SDS011;61387;48.112;8.616;2023-04-24T04:51:56;2.23;;;1.60;;
27744;SDS011;61387;48.112;8.616;2023-04-24T04:54:22;3.07;;;1.90;;
27744;SDS011;61387;48.112;8.616;2023-04-24T04:56:51;3.77;;;1.97;;
27744;SDS011;61387;48.112;8.616;2023-04-24T04:59:17;4.13;;;2.20;;
27744;SDS011;61387;48.112;8.616;2023-04-24T05:01:42;4.63;;;2.23;;
27744;SDS011;61387;48.112;8.616;2023-04-24T05:04:08;2.87;;;2.17;;
27744;SDS011;61387;48.112;8.616;2023-04-24T05:06:34;6.10;;;2.90;;
27744;SDS011;61387;48.112;8.616;2023-04-24T05:09:00;5.67;;;2.70;;
27744;SDS011;61387;48.112;8.616;2023-04-24T05:11:25;4.37;;;2.43;;
27744;SDS011;61387;48.112;8.616;2023-04-24T05:13:51;5.30;;;2.50;;
27744;SDS011;61387;48.112;8.616;2023-04-24T05:16:16;4.22;;;2.37;;
27744;SDS011;61387;48.112;8.616;2023-04-24T05:18:42;5.87;;;2.70;;
27744;SDS011;61387;48.112;8.616;2023-04-24T05:21:07;6.90;;;2.87;;
27744;SDS011;61387;48.112;8.616;2023-04-24T05:23:33;5.20;;;3.35;;
27744;SDS011;61387;48.112;8.616;2023-04-24T05:25:58;4.67;;;2.30;;
27744;SDS011;61387;48.112;8.616;2023-04-24T05:28:24;4.87;;;2.63;;
27744;SDS011;61387;48.112;8.616;2023-04-24T05:30:53;4.23;;;2.30;;
27744;SDS011;61387;48.112;8.616;2023-04-24T05:33:20;3.30;;;2.27;;
27744;SDS011;61387;48.112;8.616;2023-04-24T05:35:45;5.03;;;2.25;;
27744;SDS011;61387;48.112;8.616;2023-04-24T05:38:12;3.27;;;2.23;;
27744;SDS011;61387;48.112;8.616;2023-04-24T05:40:38;3.80;;;2.43;;
27744;SDS011;61387;48.112;8.616;2023-04-24T05:43:03;4.23;;;2.10;;
27744;SDS011;61387;48.112;8.616;2023-04-24T05:45:29;2.78;;;1.90;;
27744;SDS011;61387;48.112;8.616;2023-04-24T05:47:55;3.50;;;2.00;;
27744;SDS011;61387;48.112;8.616;2023-04-24T05:50:21;2.90;;;1.70;;
27744;SDS011;61387;48.112;8.616;2023-04-24T05:52:46;3.60;;;3.03;;
27744;SDS011;61387;48.112;8.616;2023-04-24T05:55:12;19.73;;;11.50;;
27744;SDS011;61387;48.112;8.616;2023-04-24T05:57:38;2.97;;;2.30;;
27744;SDS011;61387;48.112;8.616;2023-04-24T06:00:04;2.77;;;2.10;;
27744;SDS011;61387;48.112;8.616;2023-04-24T06:02:30;2.80;;;1.80;;
27744;SDS011;61387;48.112;8.616;2023-04-24T06:04:57;4.57;;;1.67;;
27744;SDS011;61387;48.112;8.616;2023-04-24T06:07:24;4.63;;;2.20;;
27744;SDS011;61387;48.112;8.616;2023-04-24T06:09:51;2.07;;;1.77;;
27744;SDS011;61387;48.112;8.616;2023-04-24T06:12:17;5.87;;;1.80;;
27744;SDS011;61387;48.112;8.616;2023-04-24T06:14:43;4.93;;;2.67;;
27744;SDS011;61387;48.112;8.616;2023-04-24T06:17:09;4.00;;;2.27;;
27744;SDS011;61387;48.112;8.616;2023-04-24T06:19:37;3.47;;;1.83;;
27744;SDS011;61387;48.112;8.616;2023-04-24T06:22:02;2.17;;;1.63;;
27744;SDS011;61387;48.112;8.616;2023-04-24T06:24:28;3.47;;;2.53;;
27744;SDS011;61387;48.112;8.616;2023-04-24T06:26:54;5.57;;;2.00;;
27744;SDS011;61387;48.112;8.616;2023-04-24T06:29:21;4.33;;;1.70;;
27744;SDS011;61387;48.112;8.616;2023-04-24T06:31:47;4.87;;;1.93;;
27744;SDS011;61387;48.112;8.616;2023-04-24T06:34:12;2.23;;;1.67;;
27744;SDS011;61387;48.112;8.616;2023-04-24T06:36:38;1.97;;;1.10;;
27744;SDS011;61387;48.112;8.616;2023-04-24T06:39:03;2.13;;;1.50;;
27744;SDS011;61387;48.112;8.616;2023-04-24T06:41:29;1.57;;;1.20;;
27744;SDS011;61387;48.112;8.616;2023-04-24T06:43:55;3.57;;;1.40;;
27744;SDS011;61387;48.112;8.616;2023-04-24T06:46:21;2.10;;;1.33;;
27744;SDS011;61387;48.112;8.616;2023-04-24T06:48:48;0.87;;;0.80;;
27744;SDS011;61387;48.112;8.616;2023-04-24T06:51:15;1.97;;;1.10;;
27744;SDS011;61387;48.112;8.616;2023-04-24T06:53:42;1.30;;;0.90;;
27744;SDS011;61387;48.112;8.616;2023-04-24T06:56:08;1.60;;;1.10;;
27744;SDS011;61387;48.112;8.616;2023-04-24T06:58:34;1.10;;;1.00;;
27744;SDS011;61387;48.112;8.616;2023-04-24T07:00:59;1.60;;;1.20;;
27744;SDS011;61387;48.112;8.616;2023-04-24T07:03:25;3.50;;;1.50;;
27744;SDS011;61387;48.112;8.616;2023-04-24T07:05:50;2.67;;;1.60;;
27744;SDS011;61387;48.112;8.616;2023-04-24T07:08:16;2.80;;;1.40;;
27744;SDS011;61387;48.112;8.616;2023-04-24T07:10:43;1.80;;;1.40;;
27744;SDS011;61387;48.112;8.616;2023-04-24T07:13:09;3.47;;;1.67;;
27744;SDS011;61387;48.112;8.616;2023-04-24T07:15:34;4.07;;;2.00;;
27744;SDS011;61387;48.112;8.616;2023-04-24T07:18:00;1.83;;;1.50;;
27744;SDS011;61387;48.112;8.616;2023-04-24T07:20:26;2.57;;;1.50;;
27744;SDS011;61387;48.112;8.616;2023-04-24T07:22:51;4.23;;;2.40;;
27744;SDS011;61387;48.112;8.616;2023-04-24T07:25:19;2.37;;;1.20;;
27744;SDS011;61387;48.112;8.616;2023-04-24T07:27:45;4.53;;;1.60;;
27744;SDS011;61387;48.112;8.616;2023-04-24T07:30:11;2.50;;;1.63;;
27744;SDS011;61387;48.112;8.616;2023-04-24T07:32:36;2.10;;;1.57;;
27744;SDS011;61387;48.112;8.616;2023-04-24T07:35:02;2.73;;;1.63;;
27744;SDS011;61387;48.112;8.616;2023-04-24T07:37:28;4.87;;;1.77;;
27744;SDS011;61387;48.112;8.616;2023-04-24T07:39:54;2.83;;;1.70;;
27744;SDS011;61387;48.112;8.616;2023-04-24T07:42:20;3.83;;;1.90;;
27744;SDS011;61387;48.112;8.616;2023-04-24T07:44:46;3.30;;;1.70;;
27744;SDS011;61387;48.112;8.616;2023-04-24T07:49:42;2.83;;;1.70;;
27744;SDS011;61387;48.112;8.616;2023-04-24T07:52:08;4.25;;;1.87;;
27744;SDS011;61387;48.112;8.616;2023-04-24T07:54:34;8.67;;;4.53;;
27744;SDS011;61387;48.112;8.616;2023-04-24T07:56:59;6.37;;;2.90;;
27744;SDS011;61387;48.112;8.616;2023-04-24T07:59:25;3.10;;;2.13;;
27744;SDS011;61387;48.112;8.616;2023-04-24T08:01:51;5.53;;;2.50;;
27744;SDS011;61387;48.112;8.616;2023-04-24T08:04:17;4.50;;;1.97;;
27744;SDS011;61387;48.112;8.616;2023-04-24T08:06:43;3.70;;;1.73;;
27744;SDS011;61387;48.112;8.616;2023-04-24T08:09:09;3.73;;;1.80;;
27744;SDS011;61387;48.112;8.616;2023-04-24T08:11:35;3.73;;;2.10;;
27744;SDS011;61387;48.112;8.616;2023-04-24T08:14:01;3.37;;;2.22;;
27744;SDS011;61387;48.112;8.616;2023-04-24T08:16:27;5.00;;;2.20;;
27744;SDS011;61387;48.112;8.616;2023-04-24T08:18:53;2.97;;;2.00;;
27744;SDS011;61387;48.112;8.616;2023-04-24T08:21:18;4.77;;;2.30;;
27744;SDS011;61387;48.112;8.616;2023-04-24T08:23:45;4.03;;;1.70;;
27744;SDS011;61387;48.112;8.616;2023-04-24T08:26:12;4.57;;;1.63;;
27744;SDS011;61387;48.112;8.616;2023-04-24T08:28:38;2.60;;;1.70;;
27744;SDS011;61387;48.112;8.616;2023-04-24T08:31:04;4.40;;;1.87;;
27744;SDS011;61387;48.112;8.616;2023-04-24T08:33:31;2.53;;;1.70;;
27744;SDS011;61387;48.112;8.616;2023-04-24T08:36:02;4.33;;;1.93;;
27744;SDS011;61387;48.112;8.616;2023-04-24T08:38:29;6.03;;;2.40;;
27744;SDS011;61387;48.112;8.616;2023-04-24T08:40:54;2.37;;;2.03;;
27744;SDS011;61387;48.112;8.616;2023-04-24T08:43:23;4.40;;;2.10;;
27744;SDS011;61387;48.112;8.616;2023-04-24T08:45:49;2.97;;;1.67;;
27744;SDS011;61387;48.112;8.616;2023-04-24T08:48:17;2.27;;;1.60;;
27744;SDS011;61387;48.112;8.616;2023-04-24T08:50:43;2.47;;;1.90;;
27744;SDS011;61387;48.112;8.616;2023-04-24T08:53:09;4.00;;;1.80;;
27744;SDS011;61387;48.112;8.616;2023-04-24T08:55:36;3.97;;;1.80;;
27744;SDS011;61387;48.112;8.616;2023-04-24T08:58:02;18.17;;;3.03;;
27744;SDS011;61387;48.112;8.616;2023-04-24T09:00:29;5.13;;;2.10;;
27744;SDS011;61387;48.112;8.616;2023-04-24T09:02:55;3.90;;;2.20;;
27744;SDS011;61387;48.112;8.616;2023-04-24T09:05:21;3.67;;;1.97;;
27744;SDS011;61387;48.112;8.616;2023-04-24T09:07:54;4.23;;;1.97;;
27744;SDS011;61387;48.112;8.616;2023-04-24T09:10:21;4.13;;;2.00;;
27744;SDS011;61387;48.112;8.616;2023-04-24T09:12:48;3.50;;;1.90;;
27744;SDS011;61387;48.112;8.616;2023-04-24T09:15:15;3.53;;;2.07;;
27744;SDS011;61387;48.112;8.616;2023-04-24T09:17:41;12.60;;;3.20;;
27744;SDS011;61387;48.112;8.616;2023-04-24T09:20:08;3.50;;;2.03;;
27744;SDS011;61387;48.112;8.616;2023-04-24T09:22:34;3.73;;;2.00;;
27744;SDS011;61387;48.112;8.616;2023-04-24T09:25:03;3.57;;;2.13;;
27744;SDS011;61387;48.112;8.616;2023-04-24T09:27:31;2.33;;;1.80;;
27744;SDS011;61387;48.112;8.616;2023-04-24T09:30:01;3.27;;;1.97;;
27744;SDS011;61387;48.112;8.616;2023-04-24T09:32:27;6.57;;;2.10;;
27744;SDS011;61387;48.112;8.616;2023-04-24T09:35:08;4.27;;;2.30;;
27744;SDS011;61387;48.112;8.616;2023-04-24T09:37:36;3.50;;;1.83;;
27744;SDS011;61387;48.112;8.616;2023-04-24T09:40:23;4.60;;;2.17;;
27744;SDS011;61387;48.112;8.616;2023-04-24T09:42:52;3.20;;;1.80;;
27744;SDS011;61387;48.112;8.616;2023-04-24T09:45:22;5.57;;;1.83;;
27744;SDS011;61387;48.112;8.616;2023-04-24T09:47:52;3.93;;;1.77;;
27744;SDS011;61387;48.112;8.616;2023-04-24T09:50:21;5.33;;;1.80;;
27744;SDS011;61387;48.112;8.616;2023-04-24T09:52:55;5.32;;;2.10;;
27744;SDS011;61387;48.112;8.616;2023-04-24T09:55:22;3.93;;;1.90;;
27744;SDS011;61387;48.112;8.616;2023-04-24T09:57:51;2.47;;;1.77;;
27744;SDS011;61387;48.112;8.616;2023-04-24T10:00:21;3.93;;;2.17;;
27744;SDS011;61387;48.112;8.616;2023-04-24T10:03:02;2.63;;;1.80;;
27744;SDS011;61387;48.112;8.616;2023-04-24T10:05:29;2.97;;;1.83;;
27744;SDS011;61387;48.112;8.616;2023-04-24T10:08:01;3.00;;;1.73;;
27744;SDS011;61387;48.112;8.616;2023-04-24T10:10:32;3.20;;;1.63;;
27744;SDS011;61387;48.112;8.616;2023-04-24T10:12:59;3.20;;;2.07;;
27744;SDS011;61387;48.112;8.616;2023-04-24T10:15:26;2.77;;;1.90;;
27744;SDS011;61387;48.112;8.616;2023-04-24T10:17:52;3.13;;;1.70;;
27744;SDS011;61387;48.112;8.616;2023-04-24T10:20:22;2.80;;;2.10;;
27744;SDS011;61387;48.112;8.616;2023-04-24T10:22:50;4.57;;;2.20;;
27744;SDS011;61387;48.112;8.616;2023-04-24T10:25:21;2.57;;;2.20;;
27744;SDS011;61387;48.112;8.616;2023-04-24T10:27:48;3.53;;;2.10;;
27744;SDS011;61387;48.112;8.616;2023-04-24T10:30:16;3.50;;;2.20;;
27744;SDS011;61387;48.112;8.616;2023-04-24T10:32:42;4.00;;;2.17;;
27744;SDS011;61387;48.112;8.616;2023-04-24T10:35:09;4.70;;;2.63;;
27744;SDS011;61387;48.112;8.616;2023-04-24T10:37:36;3.23;;;1.80;;
27744;SDS011;61387;48.112;8.616;2023-04-24T10:40:06;4.30;;;1.93;;
27744;SDS011;61387;48.112;8.616;2023-04-24T10:42:33;2.60;;;1.73;;
27744;SDS011;61387;48.112;8.616;2023-04-24T10:44:59;3.67;;;2.20;;
27744;SDS011;61387;48.112;8.616;2023-04-24T10:47:29;3.70;;;1.50;;
27744;SDS011;61387;48.112;8.616;2023-04-24T10:49:55;2.50;;;1.80;;
27744;SDS011;61387;48.112;8.616;2023-04-24T10:52:26;5.17;;;1.80;;
27744;SDS011;61387;48.112;8.616;2023-04-24T10:55:09;5.83;;;2.40;;
27744;SDS011;61387;48.112;8.616;2023-04-24T10:57:35;2.27;;;1.50;;
27744;SDS011;61387;48.112;8.616;2023-04-24T11:00:13;3.50;;;1.73;;
27744;SDS011;61387;48.112;8.616;2023-04-24T11:02:46;1.80;;;1.30;;
27744;SDS011;61387;48.112;8.616;2023-04-24T11:05:18;1.87;;;1.70;;
27744;SDS011;61387;48.112;8.616;2023-04-24T11:10:43;2.93;;;1.50;;
27744;SDS011;61387;48.112;8.616;2023-04-24T11:13:10;2.67;;;1.43;;
27744;SDS011;61387;48.112;8.616;2023-04-24T11:15:35;4.43;;;1.63;;
27744;SDS011;61387;48.112;8.616;2023-04-24T11:18:01;6.53;;;1.90;;
27744;SDS011;61387;48.112;8.616;2023-04-24T11:20:27;3.50;;;1.43;;
27744;SDS011;61387;48.112;8.616;2023-04-24T11:22:53;4.93;;;1.67;;
27744;SDS011;61387;48.112;8.616;2023-04-24T11:25:20;4.13;;;1.23;;
27744;SDS011;61387;48.112;8.616;2023-04-24T11:27:47;2.50;;;1.10;;
27744;SDS011;61387;48.112;8.616;2023-04-24T11:30:17;2.80;;;0.90;;
27744;SDS011;61387;48.112;8.616;2023-04-24T11:32:43;2.53;;;1.20;;
27744;SDS011;61387;48.112;8.616;2023-04-24T11:35:14;1.60;;;0.93;;
27744;SDS011;61387;48.112;8.616;2023-04-24T11:37:44;5.83;;;2.80;;
27744;SDS011;61387;48.112;8.616;2023-04-24T11:40:14;3.63;;;1.40;;
27744;SDS011;61387;48.112;8.616;2023-04-24T11:42:42;3.33;;;1.20;;
27744;SDS011;61387;48.112;8.616;2023-04-24T11:45:09;1.10;;;0.90;;
27744;SDS011;61387;48.112;8.616;2023-04-24T11:47:36;1.60;;;0.90;;
27744;SDS011;61387;48.112;8.616;2023-04-24T11:50:03;8.77;;;5.07;;
27744;SDS011;61387;48.112;8.616;2023-04-24T11:52:30;2.87;;;1.47;;
27744;SDS011;61387;48.112;8.616;2023-04-24T11:54:56;4.00;;;1.00;;
27744;SDS011;61387;48.112;8.616;2023-04-24T11:57:23;2.27;;;1.10;;
27744;SDS011;61387;48.112;8.616;2023-04-24T11:59:52;4.07;;;2.00;;
27744;SDS011;61387;48.112;8.616;2023-04-24T12:02:22;3.57;;;1.80;;
27744;SDS011;61387;48.112;8.616;2023-04-24T12:04:49;5.07;;;1.57;;
27744;SDS011;61387;48.112;8.616;2023-04-24T12:07:15;3.00;;;1.30;;
27744;SDS011;61387;48.112;8.616;2023-04-24T12:09:45;2.13;;;0.80;;
27744;SDS011;61387;48.112;8.616;2023-04-24T12:12:13;2.50;;;0.80;;
27744;SDS011;61387;48.112;8.616;2023-04-24T12:14:52;5.57;;;2.53;;
27744;SDS011;61387;48.112;8.616;2023-04-24T12:17:23;2.93;;;1.10;;
27744;SDS011;61387;48.112;8.616;2023-04-24T12:20:00;3.53;;;1.07;;
27744;SDS011;61387;48.112;8.616;2023-04-24T12:25:18;1.00;;;0.80;;
27744;SDS011;61387;48.112;8.616;2023-04-24T12:27:44;1.97;;;1.10;;
27744;SDS011;61387;48.112;8.616;2023-04-24T12:30:12;2.40;;;1.50;;
27744;SDS011;61387;48.112;8.616;2023-04-24T12:32:58;3.87;;;1.47;;
27744;SDS011;61387;48.112;8.616;2023-04-24T12:35:26;2.03;;;1.33;;
27744;SDS011;61387;48.112;8.616;2023-04-24T12:37:54;2.07;;;1.20;;
27744;SDS011;61387;48.112;8.616;2023-04-24T12:40:21;3.80;;;1.10;;
27744;SDS011;61387;48.112;8.616;2023-04-24T12:42:50;1.40;;;0.93;;
27744;SDS011;61387;48.112;8.616;2023-04-24T12:45:17;2.27;;;1.20;;
27744;SDS011;61387;48.112;8.616;2023-04-24T12:47:44;1.73;;;0.73;;
27744;SDS011;61387;48.112;8.616;2023-04-24T12:50:12;2.00;;;0.97;;
27744;SDS011;61387;48.112;8.616;2023-04-24T12:52:38;1.57;;;1.00;;
27744;SDS011;61387;48.112;8.616;2023-04-24T12:55:05;1.80;;;1.40;;
27744;SDS011;61387;48.112;8.616;2023-04-24T12:57:35;2.90;;;1.10;;
27744;SDS011;61387;48.112;8.616;2023-04-24T13:00:02;3.37;;;1.63;;
27744;SDS011;61387;48.112;8.616;2023-04-24T13:02:29;3.07;;;1.20;;
27744;SDS011;61387;48.112;8.616;2023-04-24T13:04:56;4.07;;;1.60;;
27744;SDS011;61387;48.112;8.616;2023-04-24T13:07:22;3.73;;;1.53;;
27744;SDS011;61387;48.112;8.616;2023-04-24T13:09:48;3.03;;;0.97;;
27744;SDS011;61387;48.112;8.616;2023-04-24T13:12:14;5.30;;;1.37;;
27744;SDS011;61387;48.112;8.616;2023-04-24T13:14:40;1.97;;;1.13;;
27744;SDS011;61387;48.112;8.616;2023-04-24T13:17:06;3.57;;;1.40;;
27744;SDS011;61387;48.112;8.616;2023-04-24T13:19:36;2.80;;;1.60;;
27744;SDS011;61387;48.112;8.616;2023-04-24T13:22:02;4.67;;;1.20;;
27744;SDS011;61387;48.112;8.616;2023-04-24T13:24:29;3.67;;;1.53;;
27744;SDS011;61387;48.112;8.616;2023-04-24T13:26:56;1.57;;;0.97;;
27744;SDS011;61387;48.112;8.616;2023-04-24T13:29:22;3.77;;;1.30;;
27744;SDS011;61387;48.112;8.616;2023-04-24T13:31:49;2.27;;;1.00;;
27744;SDS011;61387;48.112;8.616;2023-04-24T13:34:16;4.90;;;1.10;;
27744;SDS011;61387;48.112;8.616;2023-04-24T13:36:42;1.97;;;1.23;;
27744;SDS011;61387;48.112;8.616;2023-04-24T13:39:08;2.80;;;1.12;;
27744;SDS011;61387;48.112;8.616;2023-04-24T13:41:33;2.90;;;1.37;;
27744;SDS011;61387;48.112;8.616;2023-04-24T13:44:00;4.47;;;1.63;;
27744;SDS011;61387;48.112;8.616;2023-04-24T13:46:26;4.47;;;1.60;;
27744;SDS011;61387;48.112;8.616;2023-04-24T13:48:51;5.07;;;1.60;;
27744;SDS011;61387;48.112;8.616;2023-04-24T13:51:17;3.37;;;1.57;;
27744;SDS011;61387;48.112;8.616;2023-04-24T13:53:43;5.32;;;1.50;;
27744;SDS011;61387;48.112;8.616;2023-04-24T13:56:08;2.97;;;1.30;;
27744;SDS011;61387;48.112;8.616;2023-04-24T13:58:34;3.80;;;1.63;;
27744;SDS011;61387;48.112;8.616;2023-04-24T14:01:01;4.07;;;2.00;;
27744;SDS011;61387;48.112;8.616;2023-04-24T14:03:28;4.17;;;1.60;;
27744;SDS011;61387;48.112;8.616;2023-04-24T14:05:54;3.83;;;1.90;;
27744;SDS011;61387;48.112;8.616;2023-04-24T14:08:20;1.93;;;1.20;;
27744;SDS011;61387;48.112;8.616;2023-04-24T14:10:46;2.03;;;1.37;;
27744;SDS011;61387;48.112;8.616;2023-04-24T14:13:12;3.83;;;1.80;;
27744;SDS011;61387;48.112;8.616;2023-04-24T14:15:38;3.33;;;1.40;;
27744;SDS011;61387;48.112;8.616;2023-04-24T14:18:03;4.67;;;1.67;;
27744;SDS011;61387;48.112;8.616;2023-04-24T14:20:29;4.93;;;1.93;;
27744;SDS011;61387;48.112;8.616;2023-04-24T14:22:55;5.40;;;2.37;;
27744;SDS011;61387;48.112;8.616;2023-04-24T14:25:24;3.03;;;1.60;;
27744;SDS011;61387;48.112;8.616;2023-04-24T14:27:49;6.03;;;2.10;;
27744;SDS011;61387;48.112;8.616;2023-04-24T14:30:15;5.33;;;1.90;;
27744;SDS011;61387;48.112;8.616;2023-04-24T14:32:41;4.27;;;1.67;;
27744;SDS011;61387;48.112;8.616;2023-04-24T14:35:07;2.83;;;1.70;;
27744;SDS011;61387;48.112;8.616;2023-04-24T14:37:33;3.33;;;2.00;;
27744;SDS011;61387;48.112;8.616;2023-04-24T14:40:00;3.23;;;1.53;;
27744;SDS011;61387;48.112;8.616;2023-04-24T14:42:26;4.07;;;1.83;;
27744;SDS011;61387;48.112;8.616;2023-04-24T14:44:53;2.07;;;1.40;;
27744;SDS011;61387;48.112;8.616;2023-04-24T14:47:19;3.20;;;1.43;;
27744;SDS011;61387;48.112;8.616;2023-04-24T14:49:46;5.03;;;2.00;;
27744;SDS011;61387;48.112;8.616;2023-04-24T14:52:12;4.53;;;1.73;;
27744;SDS011;61387;48.112;8.616;2023-04-24T14:54:38;2.47;;;1.50;;